sensor_id;sensor_type;location;lat;lon;timestamp;P1;durP1;ratioP1;P2;durP2;ratioP2
53521;SDS011;39398;48.382;9.802;2023-04-08T00:04:15;20.60;;;13.25;;
53521;SDS011;39398;48.382;9.802;2023-04-08T00:09:16;21.42;;;13.60;;
53521;SDS011;39398;48.382;9.802;2023-04-08T00:14:19;22.45;;;14.20;;
53521;SDS011;39398;48.382;9.802;2023-04-08T00:19:21;24.02;;;14.63;;
53521;SDS011;39398;48.382;9.802;2023-04-08T00:24:22;26.90;;;16.88;;
53521;SDS011;39398;48.382;9.802;2023-04-08T00:29:25;23.88;;;12.15;;
53521;SDS011;39398;48.382;9.802;2023-04-08T00:34:27;23.88;;;15.02;;
53521;SDS011;39398;48.382;9.802;2023-04-08T00:39:28;19.33;;;11.38;;
53521;SDS011;39398;48.382;9.802;2023-04-08T00:44:31;22.27;;;15.27;;
53521;SDS011;39398;48.382;9.802;2023-04-08T00:49:33;18.23;;;11.60;;
53521;SDS011;39398;48.382;9.802;2023-04-08T00:54:35;17.48;;;9.73;;
53521;SDS011;39398;48.382;9.802;2023-04-08T00:59:38;26.25;;;15.23;;
53521;SDS011;39398;48.382;9.802;2023-04-08T01:04:43;21.88;;;11.98;;
53521;SDS011;39398;48.382;9.802;2023-04-08T01:09:51;20.40;;;12.80;;
53521;SDS011;39398;48.382;9.802;2023-04-08T01:14:57;33.15;;;16.67;;
53521;SDS011;39398;48.382;9.802;2023-04-08T01:20:01;30.77;;;15.70;;
53521;SDS011;39398;48.382;9.802;2023-04-08T01:25:05;37.25;;;20.70;;
53521;SDS011;39398;48.382;9.802;2023-04-08T01:30:13;38.05;;;21.88;;
53521;SDS011;39398;48.382;9.802;2023-04-08T01:35:17;44.97;;;22.95;;
53521;SDS011;39398;48.382;9.802;2023-04-08T01:40:19;38.85;;;18.92;;
53521;SDS011;39398;48.382;9.802;2023-04-08T01:45:22;40.75;;;19.20;;
53521;SDS011;39398;48.382;9.802;2023-04-08T01:50:25;41.53;;;18.50;;
53521;SDS011;39398;48.382;9.802;2023-04-08T01:55:27;49.40;;;24.58;;
53521;SDS011;39398;48.382;9.802;2023-04-08T02:00:30;32.05;;;16.13;;
53521;SDS011;39398;48.382;9.802;2023-04-08T02:05:34;34.17;;;15.38;;
53521;SDS011;39398;48.382;9.802;2023-04-08T02:10:35;26.83;;;12.68;;
53521;SDS011;39398;48.382;9.802;2023-04-08T02:15:39;41.28;;;20.58;;
53521;SDS011;39398;48.382;9.802;2023-04-08T02:20:47;49.00;;;23.75;;
53521;SDS011;39398;48.382;9.802;2023-04-08T02:25:54;36.38;;;18.10;;
53521;SDS011;39398;48.382;9.802;2023-04-08T02:30:58;22.73;;;11.57;;
53521;SDS011;39398;48.382;9.802;2023-04-08T02:36:00;25.38;;;14.55;;
53521;SDS011;39398;48.382;9.802;2023-04-08T02:41:04;26.75;;;14.93;;
53521;SDS011;39398;48.382;9.802;2023-04-08T02:46:07;20.00;;;12.52;;
53521;SDS011;39398;48.382;9.802;2023-04-08T02:51:10;20.65;;;14.43;;
53521;SDS011;39398;48.382;9.802;2023-04-08T02:56:12;18.38;;;11.30;;
53521;SDS011;39398;48.382;9.802;2023-04-08T03:01:15;12.60;;;7.30;;
53521;SDS011;39398;48.382;9.802;2023-04-08T03:06:17;20.67;;;13.40;;
53521;SDS011;39398;48.382;9.802;2023-04-08T03:11:18;14.50;;;8.55;;
53521;SDS011;39398;48.382;9.802;2023-04-08T03:16:21;19.95;;;12.93;;
53521;SDS011;39398;48.382;9.802;2023-04-08T03:21:23;20.02;;;13.90;;
53521;SDS011;39398;48.382;9.802;2023-04-08T03:26:24;21.45;;;14.30;;
53521;SDS011;39398;48.382;9.802;2023-04-08T03:31:27;16.42;;;9.45;;
53521;SDS011;39398;48.382;9.802;2023-04-08T03:36:29;23.25;;;15.35;;
53521;SDS011;39398;48.382;9.802;2023-04-08T03:41:31;25.58;;;17.40;;
53521;SDS011;39398;48.382;9.802;2023-04-08T03:46:34;20.30;;;14.35;;
53521;SDS011;39398;48.382;9.802;2023-04-08T03:51:35;23.80;;;17.15;;
53521;SDS011;39398;48.382;9.802;2023-04-08T03:56:37;21.35;;;15.48;;
53521;SDS011;39398;48.382;9.802;2023-04-08T04:01:39;19.90;;;13.82;;
53521;SDS011;39398;48.382;9.802;2023-04-08T04:06:42;23.17;;;16.60;;
53521;SDS011;39398;48.382;9.802;2023-04-08T04:11:44;20.80;;;15.50;;
53521;SDS011;39398;48.382;9.802;2023-04-08T04:16:47;22.73;;;15.98;;
53521;SDS011;39398;48.382;9.802;2023-04-08T04:21:49;22.13;;;14.32;;
53521;SDS011;39398;48.382;9.802;2023-04-08T04:26:50;23.35;;;15.45;;
53521;SDS011;39398;48.382;9.802;2023-04-08T04:31:53;14.80;;;8.95;;
53521;SDS011;39398;48.382;9.802;2023-04-08T04:36:54;26.65;;;18.13;;
53521;SDS011;39398;48.382;9.802;2023-04-08T04:41:56;31.40;;;20.75;;
53521;SDS011;39398;48.382;9.802;2023-04-08T04:46:59;29.80;;;19.17;;
53521;SDS011;39398;48.382;9.802;2023-04-08T04:52:00;27.35;;;17.95;;
53521;SDS011;39398;48.382;9.802;2023-04-08T04:57:02;22.52;;;15.93;;
53521;SDS011;39398;48.382;9.802;2023-04-08T05:02:05;23.20;;;16.00;;
53521;SDS011;39398;48.382;9.802;2023-04-08T05:07:07;24.05;;;16.55;;
53521;SDS011;39398;48.382;9.802;2023-04-08T05:12:08;28.27;;;19.48;;
53521;SDS011;39398;48.382;9.802;2023-04-08T05:17:11;24.98;;;17.80;;
53521;SDS011;39398;48.382;9.802;2023-04-08T05:22:13;24.73;;;17.00;;
53521;SDS011;39398;48.382;9.802;2023-04-08T05:27:14;29.17;;;17.25;;
53521;SDS011;39398;48.382;9.802;2023-04-08T05:32:17;18.15;;;13.05;;
53521;SDS011;39398;48.382;9.802;2023-04-08T05:37:19;17.17;;;12.80;;
53521;SDS011;39398;48.382;9.802;2023-04-08T05:42:20;14.48;;;11.00;;
53521;SDS011;39398;48.382;9.802;2023-04-08T05:47:23;17.63;;;12.77;;
53521;SDS011;39398;48.382;9.802;2023-04-08T05:52:25;12.25;;;9.07;;
53521;SDS011;39398;48.382;9.802;2023-04-08T05:57:27;15.18;;;11.10;;
53521;SDS011;39398;48.382;9.802;2023-04-08T06:02:30;15.05;;;11.50;;
53521;SDS011;39398;48.382;9.802;2023-04-08T06:07:31;14.52;;;10.60;;
53521;SDS011;39398;48.382;9.802;2023-04-08T06:12:34;15.80;;;12.05;;
53521;SDS011;39398;48.382;9.802;2023-04-08T06:17:37;18.08;;;13.05;;
53521;SDS011;39398;48.382;9.802;2023-04-08T06:22:39;17.85;;;13.60;;
53521;SDS011;39398;48.382;9.802;2023-04-08T06:27:41;22.75;;;16.08;;
53521;SDS011;39398;48.382;9.802;2023-04-08T06:32:44;20.88;;;14.95;;
53521;SDS011;39398;48.382;9.802;2023-04-08T06:37:46;24.15;;;17.48;;
53521;SDS011;39398;48.382;9.802;2023-04-08T06:42:47;17.13;;;12.73;;
53521;SDS011;39398;48.382;9.802;2023-04-08T06:47:50;16.17;;;13.02;;
53521;SDS011;39398;48.382;9.802;2023-04-08T06:52:52;20.92;;;14.75;;
53521;SDS011;39398;48.382;9.802;2023-04-08T06:57:53;23.45;;;16.55;;
53521;SDS011;39398;48.382;9.802;2023-04-08T07:02:56;22.98;;;15.45;;
53521;SDS011;39398;48.382;9.802;2023-04-08T07:07:58;11.50;;;7.32;;
53521;SDS011;39398;48.382;9.802;2023-04-08T07:12:59;15.27;;;9.45;;
53521;SDS011;39398;48.382;9.802;2023-04-08T07:18:02;12.82;;;8.75;;
53521;SDS011;39398;48.382;9.802;2023-04-08T07:23:04;16.38;;;10.90;;
53521;SDS011;39398;48.382;9.802;2023-04-08T07:28:05;20.05;;;14.18;;
53521;SDS011;39398;48.382;9.802;2023-04-08T07:33:08;18.48;;;13.32;;
53521;SDS011;39398;48.382;9.802;2023-04-08T07:38:10;21.63;;;15.90;;
53521;SDS011;39398;48.382;9.802;2023-04-08T07:43:12;20.67;;;12.65;;
53521;SDS011;39398;48.382;9.802;2023-04-08T07:48:14;27.88;;;17.58;;
53521;SDS011;39398;48.382;9.802;2023-04-08T07:53:17;39.47;;;22.20;;
53521;SDS011;39398;48.382;9.802;2023-04-08T07:58:19;36.63;;;19.13;;
53521;SDS011;39398;48.382;9.802;2023-04-08T08:03:22;30.02;;;16.27;;
53521;SDS011;39398;48.382;9.802;2023-04-08T08:08:24;32.65;;;16.27;;
53521;SDS011;39398;48.382;9.802;2023-04-08T08:13:25;52.17;;;26.05;;
53521;SDS011;39398;48.382;9.802;2023-04-08T08:18:28;55.85;;;23.48;;
53521;SDS011;39398;48.382;9.802;2023-04-08T08:23:29;53.53;;;25.60;;
53521;SDS011;39398;48.382;9.802;2023-04-08T08:28:31;44.42;;;22.98;;
53521;SDS011;39398;48.382;9.802;2023-04-08T08:33:34;35.10;;;19.17;;
53521;SDS011;39398;48.382;9.802;2023-04-08T08:38:36;26.25;;;13.05;;
53521;SDS011;39398;48.382;9.802;2023-04-08T08:43:37;33.92;;;19.00;;
53521;SDS011;39398;48.382;9.802;2023-04-08T08:48:40;16.45;;;9.85;;
53521;SDS011;39398;48.382;9.802;2023-04-08T08:53:42;17.20;;;9.20;;
53521;SDS011;39398;48.382;9.802;2023-04-08T08:58:43;26.05;;;19.20;;
53521;SDS011;39398;48.382;9.802;2023-04-08T09:03:46;20.63;;;14.32;;
53521;SDS011;39398;48.382;9.802;2023-04-08T09:09:07;25.55;;;17.25;;
53521;SDS011;39398;48.382;9.802;2023-04-08T09:14:18;23.65;;;16.60;;
53521;SDS011;39398;48.382;9.802;2023-04-08T09:19:22;18.23;;;11.77;;
53521;SDS011;39398;48.382;9.802;2023-04-08T09:24:26;22.00;;;13.88;;
53521;SDS011;39398;48.382;9.802;2023-04-08T09:29:29;16.50;;;11.10;;
53521;SDS011;39398;48.382;9.802;2023-04-08T09:34:36;24.35;;;16.77;;
53521;SDS011;39398;48.382;9.802;2023-04-08T09:39:38;23.10;;;13.75;;
53521;SDS011;39398;48.382;9.802;2023-04-08T09:44:39;22.33;;;15.50;;
53521;SDS011;39398;48.382;9.802;2023-04-08T09:49:48;20.52;;;12.10;;
53521;SDS011;39398;48.382;9.802;2023-04-08T09:54:57;21.88;;;13.52;;
53521;SDS011;39398;48.382;9.802;2023-04-08T10:00:03;21.75;;;13.77;;
53521;SDS011;39398;48.382;9.802;2023-04-08T10:05:10;20.25;;;13.52;;
53521;SDS011;39398;48.382;9.802;2023-04-08T10:10:14;15.45;;;7.57;;
53521;SDS011;39398;48.382;9.802;2023-04-08T10:15:22;19.67;;;12.23;;
53521;SDS011;39398;48.382;9.802;2023-04-08T10:25:49;16.88;;;12.00;;
53521;SDS011;39398;48.382;9.802;2023-04-08T10:30:50;20.80;;;13.82;;
53521;SDS011;39398;48.382;9.802;2023-04-08T10:35:54;14.57;;;10.43;;
53521;SDS011;39398;48.382;9.802;2023-04-08T10:41:00;19.10;;;11.77;;
53521;SDS011;39398;48.382;9.802;2023-04-08T10:46:01;17.23;;;11.52;;
53521;SDS011;39398;48.382;9.802;2023-04-08T10:51:04;18.75;;;12.43;;
53521;SDS011;39398;48.382;9.802;2023-04-08T10:56:07;17.38;;;11.50;;
53521;SDS011;39398;48.382;9.802;2023-04-08T11:01:09;21.33;;;14.23;;
53521;SDS011;39398;48.382;9.802;2023-04-08T11:06:12;21.42;;;12.07;;
53521;SDS011;39398;48.382;9.802;2023-04-08T11:11:14;19.38;;;11.27;;
53521;SDS011;39398;48.382;9.802;2023-04-08T11:16:15;21.13;;;14.75;;
53521;SDS011;39398;48.382;9.802;2023-04-08T11:21:20;18.77;;;14.13;;
53521;SDS011;39398;48.382;9.802;2023-04-08T11:26:24;21.25;;;11.65;;
53521;SDS011;39398;48.382;9.802;2023-04-08T11:31:27;13.00;;;8.52;;
53521;SDS011;39398;48.382;9.802;2023-04-08T11:36:30;13.48;;;8.45;;
53521;SDS011;39398;48.382;9.802;2023-04-08T11:41:34;14.13;;;7.65;;
53521;SDS011;39398;48.382;9.802;2023-04-08T11:46:36;18.60;;;11.75;;
53521;SDS011;39398;48.382;9.802;2023-04-08T11:56:57;17.30;;;10.85;;
53521;SDS011;39398;48.382;9.802;2023-04-08T12:02:00;22.42;;;14.20;;
53521;SDS011;39398;48.382;9.802;2023-04-08T12:07:03;20.60;;;14.18;;
53521;SDS011;39398;48.382;9.802;2023-04-08T12:12:04;24.58;;;13.88;;
53521;SDS011;39398;48.382;9.802;2023-04-08T12:17:06;18.42;;;11.85;;
53521;SDS011;39398;48.382;9.802;2023-04-08T12:22:09;17.23;;;11.93;;
53521;SDS011;39398;48.382;9.802;2023-04-08T12:27:10;21.50;;;13.40;;
53521;SDS011;39398;48.382;9.802;2023-04-08T12:32:12;18.33;;;13.43;;
53521;SDS011;39398;48.382;9.802;2023-04-08T12:37:15;21.42;;;14.07;;
53521;SDS011;39398;48.382;9.802;2023-04-08T12:42:16;18.67;;;12.50;;
53521;SDS011;39398;48.382;9.802;2023-04-08T12:47:18;21.05;;;14.73;;
53521;SDS011;39398;48.382;9.802;2023-04-08T12:52:21;24.10;;;18.85;;
53521;SDS011;39398;48.382;9.802;2023-04-08T12:57:22;24.58;;;16.85;;
53521;SDS011;39398;48.382;9.802;2023-04-08T13:02:24;20.88;;;13.40;;
53521;SDS011;39398;48.382;9.802;2023-04-08T13:07:27;25.50;;;15.95;;
53521;SDS011;39398;48.382;9.802;2023-04-08T13:12:29;15.98;;;10.90;;
53521;SDS011;39398;48.382;9.802;2023-04-08T13:17:30;24.65;;;16.15;;
53521;SDS011;39398;48.382;9.802;2023-04-08T13:22:33;16.90;;;12.65;;
53521;SDS011;39398;48.382;9.802;2023-04-08T13:27:35;17.75;;;14.80;;
53521;SDS011;39398;48.382;9.802;2023-04-08T13:32:36;20.38;;;15.77;;
53521;SDS011;39398;48.382;9.802;2023-04-08T13:37:39;20.42;;;14.80;;
53521;SDS011;39398;48.382;9.802;2023-04-08T13:42:41;14.65;;;9.32;;
53521;SDS011;39398;48.382;9.802;2023-04-08T13:47:43;15.88;;;11.23;;
53521;SDS011;39398;48.382;9.802;2023-04-08T13:52:45;17.58;;;11.52;;
53521;SDS011;39398;48.382;9.802;2023-04-08T13:57:47;13.30;;;10.40;;
53521;SDS011;39398;48.382;9.802;2023-04-08T14:02:49;20.13;;;10.82;;
53521;SDS011;39398;48.382;9.802;2023-04-08T14:07:52;18.55;;;13.48;;
53521;SDS011;39398;48.382;9.802;2023-04-08T14:12:53;17.73;;;10.00;;
53521;SDS011;39398;48.382;9.802;2023-04-08T14:17:55;19.65;;;13.23;;
53521;SDS011;39398;48.382;9.802;2023-04-08T14:22:58;18.17;;;15.18;;
53521;SDS011;39398;48.382;9.802;2023-04-08T14:27:59;17.27;;;11.80;;
53521;SDS011;39398;48.382;9.802;2023-04-08T14:33:01;19.48;;;13.80;;
53521;SDS011;39398;48.382;9.802;2023-04-08T14:38:04;15.20;;;11.38;;
53521;SDS011;39398;48.382;9.802;2023-04-08T14:43:05;17.75;;;10.85;;
53521;SDS011;39398;48.382;9.802;2023-04-08T14:48:07;17.45;;;10.50;;
53521;SDS011;39398;48.382;9.802;2023-04-08T14:53:10;17.75;;;12.23;;
53521;SDS011;39398;48.382;9.802;2023-04-08T14:58:12;18.75;;;13.68;;
53521;SDS011;39398;48.382;9.802;2023-04-08T15:03:13;18.33;;;10.38;;
53521;SDS011;39398;48.382;9.802;2023-04-08T15:08:16;20.38;;;12.77;;
53521;SDS011;39398;48.382;9.802;2023-04-08T15:13:18;14.93;;;9.27;;
53521;SDS011;39398;48.382;9.802;2023-04-08T15:18:19;19.92;;;11.73;;
53521;SDS011;39398;48.382;9.802;2023-04-08T15:23:22;14.93;;;10.60;;
53521;SDS011;39398;48.382;9.802;2023-04-08T15:28:24;12.20;;;8.73;;
53521;SDS011;39398;48.382;9.802;2023-04-08T15:33:25;17.88;;;14.35;;
53521;SDS011;39398;48.382;9.802;2023-04-08T15:38:28;15.32;;;11.50;;
53521;SDS011;39398;48.382;9.802;2023-04-08T15:43:30;15.15;;;8.45;;
53521;SDS011;39398;48.382;9.802;2023-04-08T15:48:32;19.08;;;13.05;;
53521;SDS011;39398;48.382;9.802;2023-04-08T15:53:35;16.92;;;11.60;;
53521;SDS011;39398;48.382;9.802;2023-04-08T15:58:37;17.27;;;10.18;;
53521;SDS011;39398;48.382;9.802;2023-04-08T16:03:39;12.77;;;8.98;;
53521;SDS011;39398;48.382;9.802;2023-04-08T16:08:42;13.88;;;8.57;;
53521;SDS011;39398;48.382;9.802;2023-04-08T16:13:43;14.00;;;9.50;;
53521;SDS011;39398;48.382;9.802;2023-04-08T16:18:45;17.73;;;11.38;;
53521;SDS011;39398;48.382;9.802;2023-04-08T16:23:49;16.15;;;10.48;;
53521;SDS011;39398;48.382;9.802;2023-04-08T16:28:51;16.45;;;11.13;;
53521;SDS011;39398;48.382;9.802;2023-04-08T16:33:53;20.30;;;14.30;;
53521;SDS011;39398;48.382;9.802;2023-04-08T16:38:56;17.90;;;11.93;;
53521;SDS011;39398;48.382;9.802;2023-04-08T16:43:58;15.18;;;8.45;;
53521;SDS011;39398;48.382;9.802;2023-04-08T16:48:59;11.85;;;8.38;;
53521;SDS011;39398;48.382;9.802;2023-04-08T16:54:02;14.65;;;10.70;;
53521;SDS011;39398;48.382;9.802;2023-04-08T16:59:04;12.48;;;7.22;;
53521;SDS011;39398;48.382;9.802;2023-04-08T17:04:06;18.33;;;12.80;;
53521;SDS011;39398;48.382;9.802;2023-04-08T17:09:09;17.88;;;12.35;;
53521;SDS011;39398;48.382;9.802;2023-04-08T17:14:10;15.48;;;10.60;;
53521;SDS011;39398;48.382;9.802;2023-04-08T17:19:12;16.40;;;12.02;;
53521;SDS011;39398;48.382;9.802;2023-04-08T17:24:16;19.33;;;10.32;;
53521;SDS011;39398;48.382;9.802;2023-04-08T17:29:17;20.83;;;12.82;;
53521;SDS011;39398;48.382;9.802;2023-04-08T17:34:19;19.38;;;13.38;;
53521;SDS011;39398;48.382;9.802;2023-04-08T17:39:22;18.13;;;11.95;;
53521;SDS011;39398;48.382;9.802;2023-04-08T17:44:23;19.77;;;12.57;;
53521;SDS011;39398;48.382;9.802;2023-04-08T17:49:25;19.00;;;12.50;;
53521;SDS011;39398;48.382;9.802;2023-04-08T17:54:28;20.52;;;12.27;;
53521;SDS011;39398;48.382;9.802;2023-04-08T17:59:29;19.45;;;14.55;;
53521;SDS011;39398;48.382;9.802;2023-04-08T18:04:31;21.80;;;14.82;;
53521;SDS011;39398;48.382;9.802;2023-04-08T18:09:34;19.27;;;13.48;;
53521;SDS011;39398;48.382;9.802;2023-04-08T18:14:35;20.25;;;14.30;;
53521;SDS011;39398;48.382;9.802;2023-04-08T18:19:37;25.50;;;16.23;;
53521;SDS011;39398;48.382;9.802;2023-04-08T18:24:40;29.23;;;16.35;;
53521;SDS011;39398;48.382;9.802;2023-04-08T18:29:42;22.33;;;15.90;;
53521;SDS011;39398;48.382;9.802;2023-04-08T18:34:43;24.88;;;16.67;;
53521;SDS011;39398;48.382;9.802;2023-04-08T18:39:46;24.83;;;16.80;;
53521;SDS011;39398;48.382;9.802;2023-04-08T18:44:48;26.73;;;16.25;;
53521;SDS011;39398;48.382;9.802;2023-04-08T18:49:49;21.80;;;15.77;;
53521;SDS011;39398;48.382;9.802;2023-04-08T18:54:52;23.45;;;16.45;;
53521;SDS011;39398;48.382;9.802;2023-04-08T18:59:54;43.75;;;27.08;;
53521;SDS011;39398;48.382;9.802;2023-04-08T19:04:55;23.63;;;16.52;;
53521;SDS011;39398;48.382;9.802;2023-04-08T19:09:58;24.58;;;16.58;;
53521;SDS011;39398;48.382;9.802;2023-04-08T19:15:00;23.92;;;15.77;;
53521;SDS011;39398;48.382;9.802;2023-04-08T19:20:01;25.92;;;17.02;;
53521;SDS011;39398;48.382;9.802;2023-04-08T19:25:05;25.58;;;18.25;;
53521;SDS011;39398;48.382;9.802;2023-04-08T19:30:07;28.17;;;18.58;;
53521;SDS011;39398;48.382;9.802;2023-04-08T19:35:10;28.38;;;20.40;;
53521;SDS011;39398;48.382;9.802;2023-04-08T19:40:13;26.77;;;16.90;;
53521;SDS011;39398;48.382;9.802;2023-04-08T19:45:15;29.58;;;20.25;;
53521;SDS011;39398;48.382;9.802;2023-04-08T19:50:17;27.70;;;20.30;;
53521;SDS011;39398;48.382;9.802;2023-04-08T19:55:20;27.33;;;20.63;;
53521;SDS011;39398;48.382;9.802;2023-04-08T20:00:22;28.27;;;19.65;;
53521;SDS011;39398;48.382;9.802;2023-04-08T20:05:23;28.60;;;19.63;;
53521;SDS011;39398;48.382;9.802;2023-04-08T20:10:26;28.13;;;19.35;;
53521;SDS011;39398;48.382;9.802;2023-04-08T20:15:28;27.83;;;18.55;;
53521;SDS011;39398;48.382;9.802;2023-04-08T20:20:29;26.25;;;17.65;;
53521;SDS011;39398;48.382;9.802;2023-04-08T20:25:32;30.65;;;19.70;;
53521;SDS011;39398;48.382;9.802;2023-04-08T20:30:34;28.60;;;20.02;;
53521;SDS011;39398;48.382;9.802;2023-04-08T20:35:35;27.88;;;20.02;;
53521;SDS011;39398;48.382;9.802;2023-04-08T20:40:41;26.85;;;19.20;;
53521;SDS011;39398;48.382;9.802;2023-04-08T20:45:43;29.42;;;20.75;;
53521;SDS011;39398;48.382;9.802;2023-04-08T20:50:46;30.05;;;21.17;;
53521;SDS011;39398;48.382;9.802;2023-04-08T20:55:49;27.27;;;19.15;;
53521;SDS011;39398;48.382;9.802;2023-04-08T21:00:51;28.25;;;19.35;;
53521;SDS011;39398;48.382;9.802;2023-04-08T21:05:52;26.38;;;18.48;;
53521;SDS011;39398;48.382;9.802;2023-04-08T21:10:55;24.10;;;16.85;;
53521;SDS011;39398;48.382;9.802;2023-04-08T21:15:57;24.95;;;16.80;;
53521;SDS011;39398;48.382;9.802;2023-04-08T21:20:59;41.15;;;25.15;;
53521;SDS011;39398;48.382;9.802;2023-04-08T21:26:02;28.70;;;17.90;;
53521;SDS011;39398;48.382;9.802;2023-04-08T21:31:06;26.95;;;18.08;;
53521;SDS011;39398;48.382;9.802;2023-04-08T21:36:08;28.67;;;19.70;;
53521;SDS011;39398;48.382;9.802;2023-04-08T21:41:11;29.20;;;20.40;;
53521;SDS011;39398;48.382;9.802;2023-04-08T21:46:13;35.15;;;23.30;;
53521;SDS011;39398;48.382;9.802;2023-04-08T21:51:14;35.63;;;24.20;;
53521;SDS011;39398;48.382;9.802;2023-04-08T21:56:18;34.97;;;23.63;;
53521;SDS011;39398;48.382;9.802;2023-04-08T22:01:19;30.42;;;21.50;;
53521;SDS011;39398;48.382;9.802;2023-04-08T22:06:21;33.95;;;23.02;;
53521;SDS011;39398;48.382;9.802;2023-04-08T22:11:34;31.02;;;21.92;;
53521;SDS011;39398;48.382;9.802;2023-04-08T22:16:35;30.02;;;21.65;;
53521;SDS011;39398;48.382;9.802;2023-04-08T22:21:37;31.35;;;20.65;;
53521;SDS011;39398;48.382;9.802;2023-04-08T22:26:40;31.77;;;20.67;;
53521;SDS011;39398;48.382;9.802;2023-04-08T22:31:41;31.10;;;19.52;;
53521;SDS011;39398;48.382;9.802;2023-04-08T22:36:43;49.13;;;31.92;;
53521;SDS011;39398;48.382;9.802;2023-04-08T22:41:45;30.55;;;20.30;;
53521;SDS011;39398;48.382;9.802;2023-04-08T22:46:47;28.13;;;20.02;;
53521;SDS011;39398;48.382;9.802;2023-04-08T22:51:49;26.95;;;19.20;;
53521;SDS011;39398;48.382;9.802;2023-04-08T22:56:51;28.75;;;19.92;;
53521;SDS011;39398;48.382;9.802;2023-04-08T23:01:53;26.70;;;19.48;;
53521;SDS011;39398;48.382;9.802;2023-04-08T23:06:55;28.08;;;20.15;;
53521;SDS011;39398;48.382;9.802;2023-04-08T23:11:57;28.02;;;20.67;;
53521;SDS011;39398;48.382;9.802;2023-04-08T23:16:59;29.83;;;21.10;;
53521;SDS011;39398;48.382;9.802;2023-04-08T23:22:01;30.85;;;21.48;;
53521;SDS011;39398;48.382;9.802;2023-04-08T23:27:04;27.98;;;21.35;;
53521;SDS011;39398;48.382;9.802;2023-04-08T23:32:06;28.88;;;20.65;;
53521;SDS011;39398;48.382;9.802;2023-04-08T23:37:07;34.20;;;21.60;;
53521;SDS011;39398;48.382;9.802;2023-04-08T23:42:10;31.42;;;21.08;;
53521;SDS011;39398;48.382;9.802;2023-04-08T23:47:12;29.85;;;21.00;;
53521;SDS011;39398;48.382;9.802;2023-04-08T23:52:13;33.33;;;22.73;;
53521;SDS011;39398;48.382;9.802;2023-04-08T23:57:16;33.13;;;23.08;;
